Terminal Aerodrome Forecast
Issued by NWS

Home | Current Version | Previous Version | Text Only | Print | Product List | Glossary On
Versions: 1 2 3 4 5 6 7 8 9 10 11 12 13 14 15 16 17 18
000
FTUS41 KGYX 300037 AAA
TAFPSM
TAF AMD
KPSM 300037Z 3001/3024 09005KT 3/4SM BR BKN004
     FM300200 13002KT 1/2SM FG OVC002
     FM301200 19004KT P6SM SCT003
     FM301300 20010KT P6SM SCT045=

USA.gov is the U.S. government's official web portal to all federal, state and local government web resources and services.